Time;durP1;ratioP1;P1;durP2;ratioP2;P2;SDS_P1;SDS_P2;PMS_P1;PMS_P2;Temp;Humidity;BMP_temperature;BMP_pressure;BME280_temperature;BME280_humidity;BME280_pressure;Samples;Min_cycle;Max_cycle;Signal;HPM_P1;HPM_P2
2022/10/13 00:01:08;;;;;;;6.70;3.50;;;10.60;99.90;;;;;;5008183;28;20715;-58
2022/10/13 00:03:37;;;;;;;5.03;3.30;;;10.60;99.90;;;;;;5021272;28;20258;-58
2022/10/13 00:06:07;;;;;;;7.47;3.70;;;10.50;99.90;;;;;;5021250;28;20236;-57
2022/10/13 00:08:36;;;;;;;8.03;3.77;;;10.50;99.90;;;;;;5028340;28;20295;-58
2022/10/13 00:11:10;;;;;;;8.67;3.53;;;10.50;99.90;;;;;;5021310;28;20636;-57
2022/10/13 00:13:40;;;;;;;6.27;3.43;;;10.40;99.90;;;;;;5021083;28;20228;-58
2022/10/13 00:16:09;;;;;;;8.87;3.73;;;10.40;99.90;;;;;;5020552;28;20231;-58
2022/10/13 00:18:37;;;;;;;6.47;3.20;;;10.40;99.90;;;;;;5022080;28;20228;-58
2022/10/13 00:21:07;;;;;;;8.23;3.70;;;10.40;99.90;;;;;;5021154;28;20224;-58
2022/10/13 00:23:36;;;;;;;7.67;3.97;;;10.30;99.90;;;;;;5021243;28;20229;-58
2022/10/13 00:26:06;;;;;;;8.07;4.03;;;10.30;99.90;;;;;;5022974;28;20233;-58
2022/10/13 00:28:34;;;;;;;10.63;4.63;;;10.30;99.90;;;;;;5026842;28;20761;-59
2022/10/13 00:31:04;;;;;;;8.63;4.00;;;10.30;99.90;;;;;;5014545;28;20270;-58
2022/10/13 00:33:32;;;;;;;8.77;3.80;;;10.30;99.90;;;;;;5002356;28;20703;-58
2022/10/13 00:36:01;;;;;;;7.80;3.83;;;10.20;99.90;;;;;;5003217;28;20757;-58
2022/10/13 00:38:29;;;;;;;8.60;4.00;;;10.20;99.90;;;;;;5008922;28;20713;-58
2022/10/13 00:40:57;;;;;;;10.17;4.47;;;10.20;99.90;;;;;;5002218;28;20227;-59
2022/10/13 00:43:27;;;;;;;10.47;4.20;;;10.20;99.90;;;;;;5002479;28;20222;-58
2022/10/13 00:45:55;;;;;;;7.37;4.20;;;10.20;99.90;;;;;;5003561;28;20725;-57
2022/10/13 00:48:28;;;;;;;7.67;4.10;;;10.10;99.90;;;;;;5004622;28;20233;-58
2022/10/13 00:50:58;;;;;;;8.10;4.27;;;10.10;99.90;;;;;;5002345;28;20710;-58
2022/10/13 00:53:31;;;;;;;9.47;4.17;;;10.10;99.90;;;;;;5001488;28;20236;-58
2022/10/13 00:56:00;;;;;;;10.10;4.27;;;10.10;99.90;;;;;;5002474;28;20278;-57
2022/10/13 00:58:31;;;;;;;7.97;4.07;;;10.10;99.90;;;;;;5004847;28;20250;-57
2022/10/13 01:01:00;;;;;;;10.80;4.30;;;10.10;99.90;;;;;;5008015;28;20243;-58
2022/10/13 01:03:30;;;;;;;8.67;3.63;;;10.10;99.90;;;;;;5020993;28;20580;-58
2022/10/13 01:06:01;;;;;;;6.40;3.83;;;10.10;99.90;;;;;;5021840;28;20229;-57
2022/10/13 01:08:29;;;;;;;5.90;3.90;;;10.00;99.90;;;;;;5023048;28;20241;-57
2022/10/13 01:11:11;;;;;;;7.57;3.80;;;10.00;99.90;;;;;;5020819;28;20220;-58
2022/10/13 01:13:45;;;;;;;6.90;3.70;;;10.00;99.90;;;;;;5021339;28;20291;-58
2022/10/13 01:16:22;;;;;;;9.73;4.63;;;10.00;99.90;;;;;;5021501;28;20297;-57
2022/10/13 01:19:01;;;;;;;8.33;4.37;;;10.00;99.90;;;;;;5030415;28;20313;-59
2022/10/13 01:21:33;;;;;;;8.07;4.37;;;10.00;99.90;;;;;;5021814;28;20244;-58
2022/10/13 01:24:27;;;;;;;8.57;4.00;;;9.90;99.90;;;;;;5022363;28;20682;-58
2022/10/13 01:27:21;;;;;;;7.70;3.97;;;9.90;99.90;;;;;;5022309;28;20238;-58
2022/10/13 01:30:05;;;;;;;11.03;4.57;;;9.90;99.90;;;;;;5020911;28;20280;-57
2022/10/13 01:33:01;;;;;;;6.53;4.33;;;9.90;99.90;;;;;;5024672;28;20232;-58
2022/10/13 01:35:37;;;;;;;10.47;5.00;;;9.90;99.90;;;;;;5025226;28;20226;-58
2022/10/13 01:38:13;;;;;;;8.73;5.20;;;9.90;99.90;;;;;;5024699;28;20235;-58
2022/10/13 01:40:48;;;;;;;9.77;4.60;;;9.90;99.90;;;;;;5024511;28;20233;-58
2022/10/13 01:43:20;;;;;;;9.77;4.83;;;9.90;99.90;;;;;;5024509;28;20237;-58
2022/10/13 01:45:55;;;;;;;11.90;5.20;;;9.90;99.90;;;;;;5023440;28;20244;-58
2022/10/13 01:48:25;;;;;;;10.00;4.70;;;9.90;99.90;;;;;;5029028;28;20221;-58
2022/10/13 01:50:55;;;;;;;9.17;4.73;;;9.90;99.90;;;;;;5024797;28;20241;-58
2022/10/13 01:53:23;;;;;;;9.37;5.00;;;9.90;99.90;;;;;;5024734;28;20240;-57
2022/10/13 01:55:56;;;;;;;8.13;4.80;;;9.90;99.90;;;;;;5030723;28;20225;-58
2022/10/13 01:58:27;;;;;;;9.90;5.40;;;9.90;99.90;;;;;;5024265;28;20210;-58
2022/10/13 02:01:10;;;;;;;8.60;5.00;;;9.90;99.90;;;;;;5023496;28;20231;-58
2022/10/13 02:03:48;;;;;;;11.20;4.80;;;10.00;99.90;;;;;;5025324;28;20744;-58
2022/10/13 02:06:21;;;;;;;8.97;4.90;;;9.90;99.90;;;;;;5023969;28;20226;-58
2022/10/13 02:08:58;;;;;;;8.57;4.73;;;10.00;99.90;;;;;;5024445;28;20590;-58
2022/10/13 02:11:28;;;;;;;10.70;4.67;;;10.00;99.90;;;;;;5023325;28;20227;-57
2022/10/13 02:14:02;;;;;;;14.13;4.97;;;10.00;99.90;;;;;;5023799;28;20232;-58
2022/10/13 02:16:34;;;;;;;8.80;4.60;;;10.00;99.90;;;;;;5026580;28;20233;-58
2022/10/13 02:19:05;;;;;;;11.10;4.70;;;10.00;99.90;;;;;;5023939;28;20228;-58
2022/10/13 02:21:34;;;;;;;7.33;4.87;;;10.10;99.90;;;;;;5023849;28;20260;-58
2022/10/13 02:24:03;;;;;;;7.83;4.60;;;10.10;99.90;;;;;;5024271;28;20257;-58
2022/10/13 02:26:32;;;;;;;8.47;5.23;;;10.10;99.90;;;;;;5032071;28;20697;-58
2022/10/13 02:29:10;;;;;;;10.23;4.80;;;10.00;99.90;;;;;;5023021;28;20245;-59
2022/10/13 02:31:41;;;;;;;7.97;5.17;;;10.00;99.90;;;;;;5022197;28;20246;-58
2022/10/13 02:34:10;;;;;;;10.30;4.90;;;10.00;99.90;;;;;;5023946;28;20237;-58
2022/10/13 02:36:38;;;;;;;8.47;5.13;;;9.90;99.90;;;;;;5026946;28;20229;-58
2022/10/13 02:39:08;;;;;;;10.30;4.87;;;9.90;99.90;;;;;;5022153;28;20227;-58
2022/10/13 02:41:36;;;;;;;11.03;5.53;;;9.80;99.90;;;;;;5023500;28;20235;-57
2022/10/13 02:44:05;;;;;;;9.63;5.27;;;9.90;99.90;;;;;;5023755;28;20236;-58
2022/10/13 02:46:34;;;;;;;8.07;5.30;;;9.80;99.90;;;;;;5034021;28;20283;-58
2022/10/13 02:49:04;;;;;;;10.53;5.80;;;9.90;99.90;;;;;;5023760;28;20234;-58
2022/10/13 02:51:32;;;;;;;8.63;5.10;;;9.80;99.90;;;;;;5022600;28;20246;-58
2022/10/13 02:54:06;;;;;;;8.40;5.20;;;9.80;99.90;;;;;;5023393;28;20318;-58
2022/10/13 02:56:34;;;;;;;9.00;4.90;;;9.80;99.90;;;;;;5029890;28;20714;-57
2022/10/13 02:59:02;;;;;;;9.20;5.03;;;9.70;99.90;;;;;;5022620;28;20222;-58
2022/10/13 03:01:30;;;;;;;8.53;5.07;;;9.70;99.90;;;;;;5021993;28;20813;-58
2022/10/13 03:03:58;;;;;;;7.37;5.07;;;9.70;99.90;;;;;;5022711;28;20230;-58
2022/10/13 03:06:27;;;;;;;10.33;5.77;;;9.70;99.90;;;;;;5028234;28;20602;-58
2022/10/13 03:08:55;;;;;;;6.57;4.73;;;9.70;99.90;;;;;;5022594;28;20222;-59
2022/10/13 03:11:23;;;;;;;7.10;5.37;;;9.70;99.90;;;;;;5022314;28;20231;-58
2022/10/13 03:13:51;;;;;;;11.33;5.90;;;9.70;99.90;;;;;;5021995;28;20250;-58
2022/10/13 03:16:19;;;;;;;9.80;5.60;;;9.70;99.90;;;;;;5023895;28;20234;-58
2022/10/13 03:18:47;;;;;;;10.87;6.10;;;9.70;99.90;;;;;;5024506;28;20218;-58
2022/10/13 03:21:15;;;;;;;9.53;5.87;;;9.70;99.90;;;;;;5022193;28;20637;-58
2022/10/13 03:23:45;;;;;;;11.53;6.07;;;9.70;99.90;;;;;;5022078;28;20238;-58
2022/10/13 03:26:14;;;;;;;10.97;5.67;;;9.70;99.90;;;;;;5029019;28;20225;-58
2022/10/13 03:28:42;;;;;;;11.43;6.17;;;9.70;99.90;;;;;;5020572;28;20238;-58
2022/10/13 03:31:12;;;;;;;6.83;5.40;;;9.70;99.90;;;;;;5021751;28;20244;-58
2022/10/13 03:33:40;;;;;;;8.13;6.10;;;9.70;99.90;;;;;;5021948;28;20281;-58
2022/10/13 03:36:11;;;;;;;10.53;6.00;;;9.70;99.90;;;;;;5024989;28;20690;-58
2022/10/13 03:38:42;;;;;;;10.50;6.37;;;9.70;99.90;;;;;;5024339;28;20221;-58
2022/10/13 03:41:13;;;;;;;12.73;6.27;;;9.70;99.90;;;;;;5032764;28;20245;-58
2022/10/13 03:43:43;;;;;;;10.80;6.67;;;9.60;99.90;;;;;;5029045;28;20237;-58
2022/10/13 03:46:13;;;;;;;10.63;7.10;;;9.70;99.90;;;;;;5029716;28;20233;-57
2022/10/13 03:48:42;;;;;;;10.63;6.50;;;9.70;99.90;;;;;;5027543;28;20242;-58
2022/10/13 03:51:12;;;;;;;12.87;6.87;;;9.60;99.90;;;;;;5029231;28;20236;-58
2022/10/13 03:53:45;;;;;;;9.87;6.03;;;9.60;99.90;;;;;;5029578;28;20303;-58
2022/10/13 03:56:17;;;;;;;11.00;6.63;;;9.60;99.90;;;;;;5026870;28;20237;-58
2022/10/13 03:58:53;;;;;;;11.10;7.67;;;9.60;99.90;;;;;;5029680;28;20223;-58
2022/10/13 04:01:22;;;;;;;13.07;6.57;;;9.60;99.90;;;;;;5020889;28;20261;-58
2022/10/13 04:03:51;;;;;;;12.90;7.37;;;9.60;99.90;;;;;;5020323;28;20275;-58
2022/10/13 04:06:20;;;;;;;10.57;6.73;;;9.60;99.90;;;;;;5025877;28;20234;-58
2022/10/13 04:08:48;;;;;;;10.97;7.30;;;9.60;99.90;;;;;;5023362;28;20230;-58
2022/10/13 04:11:18;;;;;;;12.33;6.63;;;9.60;99.90;;;;;;5021846;28;20237;-58
2022/10/13 04:13:51;;;;;;;10.67;7.37;;;9.60;99.90;;;;;;5021027;28;20223;-58
2022/10/13 04:16:22;;;;;;;9.93;6.80;;;9.60;99.90;;;;;;5021079;28;20229;-58
2022/10/13 04:18:52;;;;;;;10.20;6.73;;;9.60;99.90;;;;;;5020766;28;20219;-59
2022/10/13 04:21:20;;;;;;;8.23;6.20;;;9.50;99.90;;;;;;5020964;28;20310;-58
2022/10/13 04:23:48;;;;;;;12.60;7.23;;;9.60;99.90;;;;;;5020662;28;20281;-58
2022/10/13 04:26:20;;;;;;;13.80;7.50;;;9.50;99.90;;;;;;5030064;28;20230;-57
2022/10/13 04:28:50;;;;;;;11.23;7.37;;;9.50;99.90;;;;;;5023172;28;20237;-58
2022/10/13 04:31:20;;;;;;;9.97;7.03;;;9.50;99.90;;;;;;5020842;28;20713;-58
2022/10/13 04:33:49;;;;;;;11.67;7.60;;;9.50;99.90;;;;;;5020005;28;20278;-58
2022/10/13 04:36:18;;;;;;;9.33;6.73;;;9.50;99.90;;;;;;5020116;28;20284;-58
2022/10/13 04:38:50;;;;;;;12.80;7.63;;;9.50;99.90;;;;;;5020374;28;20276;-58
2022/10/13 04:41:19;;;;;;;11.97;7.43;;;9.50;99.90;;;;;;5019831;28;20686;-58
2022/10/13 04:43:48;;;;;;;13.60;7.50;;;9.50;99.90;;;;;;5013011;28;20306;-58
2022/10/13 04:46:18;;;;;;;11.80;7.10;;;9.40;99.90;;;;;;5020542;28;20625;-57
2022/10/13 04:48:49;;;;;;;10.27;7.33;;;9.50;99.90;;;;;;5020526;28;20623;-58
2022/10/13 04:51:20;;;;;;;11.47;7.50;;;9.50;99.90;;;;;;5020082;28;20283;-58
2022/10/13 04:53:48;;;;;;;10.40;7.13;;;9.50;99.90;;;;;;5020882;28;20231;-58
2022/10/13 04:56:19;;;;;;;12.50;7.10;;;9.50;99.90;;;;;;5026922;28;20231;-58
2022/10/13 04:58:47;;;;;;;15.20;7.87;;;9.50;99.90;;;;;;5016594;28;20222;-57
2022/10/13 05:01:17;;;;;;;11.43;7.47;;;9.50;99.90;;;;;;5026912;28;20709;-58
2022/10/13 05:03:51;;;;;;;11.03;7.77;;;9.50;99.90;;;;;;5044021;28;20229;-58
2022/10/13 05:06:21;;;;;;;11.50;7.70;;;9.50;99.90;;;;;;5029078;28;20244;-58
2022/10/13 05:08:50;;;;;;;12.43;7.50;;;9.50;99.90;;;;;;5026310;28;20276;-58
2022/10/13 05:11:19;;;;;;;13.27;8.50;;;9.60;99.90;;;;;;5025380;28;20284;-58
2022/10/13 05:13:47;;;;;;;13.63;8.03;;;9.50;99.90;;;;;;5023953;28;20230;-58
2022/10/13 05:16:17;;;;;;;11.00;8.10;;;9.50;99.90;;;;;;5024223;28;20235;-57
2022/10/13 05:18:45;;;;;;;11.77;7.90;;;9.50;99.90;;;;;;5029088;28;20217;-57
2022/10/13 05:21:15;;;;;;;13.47;8.57;;;9.40;99.90;;;;;;5023135;28;20236;-58
2022/10/13 05:23:44;;;;;;;12.47;8.30;;;9.50;99.90;;;;;;5035181;28;20701;-58
2022/10/13 05:26:14;;;;;;;14.67;8.17;;;9.50;99.90;;;;;;5028691;28;20598;-58
2022/10/13 05:28:44;;;;;;;12.27;7.83;;;9.50;99.90;;;;;;5022475;28;20246;-58
2022/10/13 05:31:13;;;;;;;15.60;8.03;;;9.50;99.90;;;;;;5003788;28;20247;-58
2022/10/13 05:33:42;;;;;;;14.27;8.17;;;9.50;99.90;;;;;;5022645;28;20229;-58
2022/10/13 05:36:16;;;;;;;13.60;9.03;;;9.50;99.90;;;;;;5019118;28;20715;-58
2022/10/13 05:38:45;;;;;;;14.17;8.50;;;9.50;99.90;;;;;;5021465;28;20275;-58
2022/10/13 05:41:14;;;;;;;17.07;9.60;;;9.50;99.90;;;;;;5014314;28;20229;-58
2022/10/13 05:43:43;;;;;;;18.70;8.80;;;9.50;99.90;;;;;;5023560;28;20231;-58
2022/10/13 05:46:11;;;;;;;12.40;8.83;;;9.50;99.90;;;;;;5022391;28;20581;-58
2022/10/13 05:48:39;;;;;;;15.00;9.00;;;9.50;99.90;;;;;;5022607;28;20221;-58
2022/10/13 05:51:12;;;;;;;13.87;9.37;;;9.50;99.90;;;;;;5024328;28;20223;-57
2022/10/13 05:53:46;;;;;;;13.07;8.63;;;9.50;99.90;;;;;;5021993;28;20736;-58
2022/10/13 05:56:27;;;;;;;14.27;9.37;;;9.50;99.90;;;;;;5021793;28;20716;-58
2022/10/13 05:59:00;;;;;;;13.87;9.50;;;9.60;99.90;;;;;;5022962;28;20719;-58
2022/10/13 06:01:34;;;;;;;13.73;8.73;;;9.60;99.90;;;;;;5011020;28;20318;-58
2022/10/13 06:04:06;;;;;;;16.87;10.23;;;9.60;99.90;;;;;;5002805;28;20226;-57
2022/10/13 06:06:37;;;;;;;12.20;9.07;;;9.60;99.90;;;;;;5001532;28;20231;-58
2022/10/13 06:09:07;;;;;;;13.87;9.27;;;9.60;99.90;;;;;;5002428;28;20224;-58
2022/10/13 06:11:37;;;;;;;16.50;9.10;;;9.60;99.90;;;;;;5009995;28;20717;-58
2022/10/13 06:14:08;;;;;;;14.47;9.57;;;9.70;99.90;;;;;;4985817;28;20222;-58
2022/10/13 06:16:37;;;;;;;13.23;9.07;;;9.70;99.90;;;;;;5003100;28;21103;-58
2022/10/13 06:19:07;;;;;;;15.03;9.13;;;9.70;99.90;;;;;;5008939;28;20630;-58
2022/10/13 06:21:36;;;;;;;17.47;10.00;;;9.70;99.90;;;;;;5008124;28;20231;-58
2022/10/13 06:24:08;;;;;;;17.03;11.07;;;9.70;99.90;;;;;;5003452;28;20230;-58
2022/10/13 06:26:37;;;;;;;17.60;9.90;;;9.70;99.90;;;;;;5002165;28;20214;-57
2022/10/13 06:29:05;;;;;;;14.33;10.37;;;9.70;99.90;;;;;;5004632;28;20705;-58
2022/10/13 06:31:35;;;;;;;18.03;10.73;;;9.80;99.90;;;;;;5000572;28;20272;-58
2022/10/13 06:34:04;;;;;;;17.43;10.23;;;9.80;99.90;;;;;;5002317;28;20693;-58
2022/10/13 06:36:32;;;;;;;13.63;9.47;;;9.80;99.90;;;;;;4998213;28;20788;-57
2022/10/13 06:39:00;;;;;;;14.70;10.00;;;9.80;99.90;;;;;;5000801;28;20260;-57
2022/10/13 06:41:28;;;;;;;16.03;10.23;;;9.90;99.90;;;;;;5000786;28;20226;-57
2022/10/13 06:43:56;;;;;;;15.13;10.33;;;9.90;99.90;;;;;;5001611;28;20682;-58
2022/10/13 06:46:30;;;;;;;15.30;10.63;;;9.90;99.90;;;;;;4996399;28;20257;-57
2022/10/13 06:48:59;;;;;;;16.13;10.93;;;9.90;99.90;;;;;;4995766;28;20231;-57
2022/10/13 06:51:29;;;;;;;14.40;10.03;;;10.00;99.90;;;;;;4995196;28;20250;-58
2022/10/13 06:53:57;;;;;;;15.87;10.13;;;10.00;99.90;;;;;;4997879;28;20235;-58
2022/10/13 06:56:25;;;;;;;15.27;10.60;;;10.00;99.90;;;;;;4996351;28;20222;-57
2022/10/13 06:58:54;;;;;;;16.63;10.67;;;10.10;99.90;;;;;;5001966;28;20226;-58
2022/10/13 07:01:22;;;;;;;16.70;11.93;;;10.10;99.90;;;;;;4999754;28;20254;-58
2022/10/13 07:03:50;;;;;;;17.87;10.33;;;10.10;99.90;;;;;;4994207;28;20222;-57
2022/10/13 07:07:00;;;;;;;14.97;10.73;;;10.10;99.90;;;;;;5092997;22;20222;-79
2022/10/13 07:09:34;;;;;;;15.93;10.10;;;10.10;99.90;;;;;;5016768;28;20284;-78
2022/10/13 07:12:04;;;;;;;17.93;10.77;;;10.20;99.90;;;;;;5037050;28;20236;-77
2022/10/13 07:14:32;;;;;;;16.90;10.50;;;10.20;99.90;;;;;;5083158;22;20689;-57
2022/10/13 07:17:00;;;;;;;18.87;10.93;;;10.20;99.90;;;;;;5007132;28;20238;-56
2022/10/13 07:19:28;;;;;;;18.07;10.93;;;10.30;99.90;;;;;;5008109;28;20264;-57
2022/10/13 07:21:56;;;;;;;18.67;11.93;;;10.40;99.90;;;;;;5008868;28;20233;-52
2022/10/13 07:24:25;;;;;;;20.13;10.67;;;10.40;99.90;;;;;;5020580;28;20234;-54
2022/10/13 07:26:55;;;;;;;16.77;12.23;;;10.40;99.90;;;;;;5018561;28;20221;-55
2022/10/13 07:29:23;;;;;;;17.90;11.40;;;10.50;99.90;;;;;;5021765;28;20232;-57
2022/10/13 07:31:51;;;;;;;17.90;10.87;;;10.50;99.90;;;;;;5032198;28;21558;-57
2022/10/13 07:34:19;;;;;;;15.50;10.37;;;10.50;99.90;;;;;;5040402;28;20237;-57
2022/10/13 07:36:47;;;;;;;15.97;10.93;;;10.50;99.90;;;;;;5039135;28;20232;-58
2022/10/13 07:39:15;;;;;;;17.00;12.03;;;10.60;99.90;;;;;;5041468;28;20641;-59
2022/10/13 07:41:43;;;;;;;19.87;12.70;;;10.60;99.90;;;;;;5035886;28;20236;-59
2022/10/13 07:44:19;;;;;;;15.73;11.53;;;10.60;99.90;;;;;;5027050;28;20228;-59
2022/10/13 07:46:47;;;;;;;16.80;11.83;;;10.70;99.90;;;;;;5027153;28;20237;-58
2022/10/13 07:49:15;;;;;;;18.63;12.73;;;10.70;99.90;;;;;;5026855;28;20255;-60
2022/10/13 07:51:43;;;;;;;17.87;13.30;;;10.80;99.90;;;;;;5025566;28;20271;-58
2022/10/13 07:54:12;;;;;;;19.03;12.77;;;10.80;99.90;;;;;;5031495;28;20222;-59
2022/10/13 07:56:40;;;;;;;17.90;12.50;;;10.80;99.90;;;;;;5039987;28;20229;-58
2022/10/13 07:59:10;;;;;;;19.23;13.03;;;10.80;99.90;;;;;;5039317;28;20332;-58
2022/10/13 08:01:39;;;;;;;20.10;14.10;;;10.90;99.90;;;;;;5037633;28;20245;-58
2022/10/13 08:04:08;;;;;;;20.37;13.70;;;11.00;99.90;;;;;;5038210;28;20231;-57
2022/10/13 08:06:36;;;;;;;26.23;15.43;;;11.00;99.90;;;;;;5037341;28;20220;-56
2022/10/13 08:09:09;;;;;;;19.77;14.03;;;11.00;99.90;;;;;;5028321;28;20234;-57
2022/10/13 08:11:37;;;;;;;19.07;14.47;;;11.20;99.90;;;;;;5009381;28;20279;-56
2022/10/13 08:14:05;;;;;;;19.03;13.80;;;11.30;99.90;;;;;;5005835;28;20926;-56
2022/10/13 08:16:34;;;;;;;20.23;14.17;;;11.40;99.90;;;;;;5006387;28;20230;-56
2022/10/13 08:19:03;;;;;;;22.97;15.87;;;11.60;99.90;;;;;;5006860;28;20725;-56
2022/10/13 08:21:31;;;;;;;21.10;14.37;;;11.70;99.90;;;;;;5006723;28;20223;-56
2022/10/13 08:24:21;;;;;;;20.77;15.23;;;11.70;99.90;;;;;;5006791;28;20231;-56
2022/10/13 08:26:49;;;;;;;21.17;14.83;;;11.80;99.90;;;;;;5006362;28;20247;-55
2022/10/13 08:29:17;;;;;;;22.73;15.13;;;11.90;99.90;;;;;;5021173;28;20302;-56
2022/10/13 08:31:51;;;;;;;21.17;15.87;;;12.00;99.90;;;;;;5015029;28;20238;-57
2022/10/13 08:34:21;;;;;;;27.27;16.00;;;12.00;99.90;;;;;;5018736;28;20312;-57
2022/10/13 08:36:51;;;;;;;22.40;15.33;;;12.10;99.90;;;;;;5017957;28;20239;-56
2022/10/13 08:39:21;;;;;;;25.17;15.50;;;12.20;99.90;;;;;;5006557;28;20317;-56
2022/10/13 08:41:50;;;;;;;20.00;14.27;;;12.20;99.90;;;;;;5005084;28;20381;-56
2022/10/13 08:44:24;;;;;;;20.43;14.80;;;12.30;99.90;;;;;;5006649;28;21039;-55
2022/10/13 08:47:20;;;;;;;21.57;16.10;;;12.20;99.90;;;;;;5006283;28;20236;-56
2022/10/13 08:49:50;;;;;;;20.37;15.60;;;12.30;99.90;;;;;;5005693;28;20238;-56
2022/10/13 08:52:21;;;;;;;21.13;15.30;;;12.30;99.90;;;;;;5005466;28;20240;-57
2022/10/13 08:54:53;;;;;;;20.47;16.13;;;12.30;99.90;;;;;;5005850;28;20244;-55
2022/10/13 08:57:23;;;;;;;24.83;16.03;;;12.40;99.90;;;;;;5006670;28;20624;-57
2022/10/13 08:59:53;;;;;;;21.03;15.23;;;12.50;99.90;;;;;;5014444;28;20235;-56
2022/10/13 09:02:25;;;;;;;26.40;16.57;;;12.70;99.90;;;;;;5015412;28;20243;-55
2022/10/13 09:04:57;;;;;;;20.97;16.10;;;12.90;99.90;;;;;;5018513;28;20228;-58
2022/10/13 09:07:31;;;;;;;24.07;15.93;;;13.00;99.90;;;;;;5019876;28;20219;-56
2022/10/13 09:09:59;;;;;;;24.00;17.33;;;13.10;99.90;;;;;;5018458;28;21521;-57
2022/10/13 09:12:28;;;;;;;20.93;15.90;;;13.10;99.90;;;;;;5012730;28;20244;-57
2022/10/13 09:14:58;;;;;;;23.00;16.53;;;13.10;99.90;;;;;;5006318;28;20244;-57
2022/10/13 09:17:27;;;;;;;24.53;16.93;;;13.00;99.90;;;;;;5005810;28;20236;-57
2022/10/13 09:20:02;;;;;;;27.93;16.93;;;12.90;99.90;;;;;;5006249;28;20235;-57
2022/10/13 09:22:32;;;;;;;21.93;17.10;;;12.80;99.90;;;;;;5005310;28;20229;-56
2022/10/13 09:25:24;;;;;;;25.03;17.20;;;12.70;99.90;;;;;;5006915;28;20241;-57
2022/10/13 09:27:55;;;;;;;24.63;16.23;;;12.70;99.90;;;;;;4993264;28;20251;-57
2022/10/13 09:30:36;;;;;;;24.63;16.77;;;12.60;99.90;;;;;;5005865;28;20266;-56
2022/10/13 09:33:22;;;;;;;25.00;16.37;;;12.60;99.90;;;;;;5006287;28;20236;-58
2022/10/13 09:36:12;;;;;;;20.17;16.83;;;12.60;99.90;;;;;;5006352;28;20570;-57
2022/10/13 09:38:43;;;;;;;22.07;15.77;;;12.70;99.90;;;;;;5009303;28;20239;-57
2022/10/13 09:41:16;;;;;;;25.03;16.57;;;12.60;99.90;;;;;;5008953;28;20221;-57
2022/10/13 09:44:08;;;;;;;22.43;16.00;;;12.70;99.90;;;;;;5006995;28;20221;-57
2022/10/13 09:46:45;;;;;;;22.60;16.17;;;12.60;99.90;;;;;;5008920;28;20236;-58
2022/10/13 09:49:30;;;;;;;23.50;16.90;;;12.60;99.90;;;;;;5012389;28;20232;-57
2022/10/13 09:52:02;;;;;;;23.13;16.00;;;12.70;99.90;;;;;;5013568;28;20903;-56
2022/10/13 09:54:39;;;;;;;23.10;16.60;;;12.80;99.90;;;;;;5014500;28;20235;-57
2022/10/13 09:57:15;;;;;;;19.20;15.83;;;12.80;99.90;;;;;;5013562;28;20243;-58
2022/10/13 09:59:47;;;;;;;21.37;16.07;;;12.90;99.90;;;;;;5012536;28;20756;-58
2022/10/13 10:02:23;;;;;;;20.93;15.87;;;13.00;99.90;;;;;;5011670;28;20330;-58
2022/10/13 10:04:56;;;;;;;24.27;17.03;;;13.10;99.90;;;;;;5016340;28;20247;-58
2022/10/13 10:07:31;;;;;;;24.60;16.40;;;13.20;99.90;;;;;;5008549;28;21023;-58
2022/10/13 10:10:03;;;;;;;21.10;15.57;;;13.40;99.90;;;;;;5009479;28;20782;-57
2022/10/13 10:12:36;;;;;;;25.20;16.70;;;13.50;99.90;;;;;;5014642;28;20235;-56
2022/10/13 10:15:16;;;;;;;22.83;15.83;;;13.50;99.90;;;;;;5014833;28;20263;-57
2022/10/13 10:17:53;;;;;;;20.40;15.40;;;13.60;99.90;;;;;;5011360;28;20264;-57
2022/10/13 10:20:37;;;;;;;20.50;15.27;;;13.70;99.90;;;;;;5011570;28;20235;-57
2022/10/13 10:23:14;;;;;;;20.73;15.03;;;13.80;99.90;;;;;;5011121;28;20225;-57
2022/10/13 10:25:46;;;;;;;22.47;16.37;;;13.70;99.90;;;;;;5014180;28;20250;-58
2022/10/13 10:28:45;;;;;;;24.27;15.90;;;13.70;99.90;;;;;;5013250;28;20236;-58
2022/10/13 10:31:25;;;;;;;20.40;15.50;;;13.70;99.90;;;;;;5011817;28;20240;-58
2022/10/13 10:34:07;;;;;;;18.93;14.67;;;13.70;99.90;;;;;;5011939;28;20267;-56
2022/10/13 10:36:43;;;;;;;24.03;17.07;;;13.80;99.90;;;;;;5009100;28;20225;-58
2022/10/13 10:39:23;;;;;;;25.93;16.40;;;14.00;99.90;;;;;;5008522;28;20237;-56
2022/10/13 10:41:59;;;;;;;19.43;14.93;;;14.30;99.90;;;;;;5009253;28;20224;-57
2022/10/13 10:44:31;;;;;;;19.60;15.03;;;14.50;99.90;;;;;;5010593;28;20237;-57
2022/10/13 10:47:04;;;;;;;19.00;14.67;;;14.60;99.90;;;;;;5011526;28;20237;-58
2022/10/13 10:49:34;;;;;;;22.33;15.27;;;14.80;99.90;;;;;;5010750;28;20228;-56
2022/10/13 10:52:06;;;;;;;24.60;15.87;;;15.10;99.90;;;;;;5009153;28;20244;-56
2022/10/13 10:54:47;;;;;;;20.00;15.43;;;15.70;99.90;;;;;;5012201;28;20893;-57
2022/10/13 10:57:21;;;;;;;22.83;15.30;;;16.10;99.90;;;;;;5011671;28;20312;-55
2022/10/13 10:59:58;;;;;;;23.70;15.90;;;16.10;99.90;;;;;;5011072;28;20592;-58
2022/10/13 11:02:44;;;;;;;20.83;15.60;;;16.20;99.90;;;;;;5011077;28;20233;-57
2022/10/13 11:05:13;;;;;;;24.07;16.13;;;16.30;99.90;;;;;;5010253;28;20723;-58
2022/10/13 11:07:59;;;;;;;22.43;16.30;;;16.10;99.90;;;;;;5008334;28;20587;-58
2022/10/13 11:10:29;;;;;;;22.60;16.57;;;16.00;99.90;;;;;;5006374;28;20241;-57
2022/10/13 11:13:21;;;;;;;28.03;19.70;;;15.60;99.90;;;;;;5008182;28;20731;-58
2022/10/13 11:15:50;;;;;;;23.00;17.20;;;15.60;99.90;;;;;;5014132;28;20306;-57
2022/10/13 11:18:57;;;;;;;22.07;16.43;;;15.50;99.90;;;;;;5013621;28;20233;-58
2022/10/13 11:22:21;;;;;;;23.43;16.33;;;15.60;99.90;;;;;;5012486;28;20259;-58
2022/10/13 11:25:02;;;;;;;24.73;18.43;;;15.50;99.90;;;;;;5007659;28;20221;-58
2022/10/13 11:27:43;;;;;;;24.83;18.80;;;15.40;99.90;;;;;;5007944;28;20455;-57
2022/10/13 11:30:46;;;;;;;23.80;17.00;;;15.50;99.90;;;;;;5010438;28;20228;-57
2022/10/13 11:33:52;;;;;;;25.07;17.30;;;15.60;99.90;;;;;;5010249;28;20236;-58
2022/10/13 11:36:44;;;;;;;22.30;16.93;;;15.60;99.90;;;;;;5013102;28;20233;-57
2022/10/13 11:39:42;;;;;;;21.83;16.57;;;15.80;99.90;;;;;;5011682;28;20229;-58
2022/10/13 11:42:24;;;;;;;21.73;16.90;;;15.90;99.90;;;;;;5009474;28;20647;-56
2022/10/13 11:44:57;;;;;;;23.07;17.57;;;16.00;99.90;;;;;;5011075;28;20700;-57
2022/10/13 11:47:52;;;;;;;21.63;17.13;;;16.10;99.90;;;;;;5009061;28;20715;-57
2022/10/13 11:50:28;;;;;;;24.93;16.10;;;16.10;99.90;;;;;;5011868;28;20236;-58
2022/10/13 11:53:12;;;;;;;23.07;15.70;;;16.40;99.90;;;;;;5007066;28;20237;-58
2022/10/13 11:55:49;;;;;;;24.93;16.67;;;16.40;99.90;;;;;;5010243;28;20236;-58
2022/10/13 11:58:20;;;;;;;23.23;16.90;;;16.20;99.90;;;;;;5011582;28;20236;-58
2022/10/13 12:00:58;;;;;;;23.80;15.43;;;16.10;99.90;;;;;;5010971;28;20265;-58
2022/10/13 12:03:29;;;;;;;21.60;17.07;;;16.10;99.90;;;;;;5011863;28;20239;-57
2022/10/13 12:06:02;;;;;;;22.90;16.53;;;15.90;99.90;;;;;;5010195;28;20723;-56
2022/10/13 12:08:32;;;;;;;24.13;17.00;;;15.90;99.90;;;;;;5009855;28;20235;-58
2022/10/13 12:11:03;;;;;;;21.83;15.77;;;15.70;99.90;;;;;;5006974;28;20233;-58
2022/10/13 12:13:34;;;;;;;22.73;16.93;;;15.60;99.90;;;;;;5009137;28;20744;-57
2022/10/13 12:16:06;;;;;;;25.60;16.27;;;15.60;99.90;;;;;;5009606;28;20728;-57
2022/10/13 12:18:37;;;;;;;21.00;15.43;;;15.60;99.90;;;;;;5010809;28;20746;-58
2022/10/13 12:21:11;;;;;;;23.30;16.40;;;15.50;99.90;;;;;;5012013;28;20331;-58
2022/10/13 12:23:40;;;;;;;22.27;15.93;;;15.50;99.90;;;;;;5011222;28;20228;-58
2022/10/13 12:26:15;;;;;;;22.17;16.00;;;15.60;99.90;;;;;;5012158;28;20224;-58
2022/10/13 12:28:49;;;;;;;25.77;17.70;;;15.60;99.90;;;;;;5006329;28;20229;-59
2022/10/13 12:31:23;;;;;;;22.40;16.03;;;15.60;99.90;;;;;;5005845;28;20232;-57
2022/10/13 12:33:56;;;;;;;29.27;16.03;;;15.60;99.90;;;;;;5005250;28;20225;-57
2022/10/13 12:36:29;;;;;;;21.47;16.03;;;15.60;99.90;;;;;;5005631;28;20320;-57
2022/10/13 12:39:01;;;;;;;21.47;16.57;;;15.70;99.90;;;;;;5005030;28;20229;-56
2022/10/13 12:41:32;;;;;;;22.17;15.63;;;15.80;99.90;;;;;;5005649;28;20315;-56
2022/10/13 12:44:00;;;;;;;23.67;16.23;;;15.80;99.90;;;;;;5005449;28;20233;-58
2022/10/13 12:46:43;;;;;;;23.10;15.43;;;15.80;99.90;;;;;;5006403;28;20299;-58
2022/10/13 12:49:15;;;;;;;20.33;16.03;;;15.80;99.90;;;;;;5008476;28;20247;-57
2022/10/13 12:51:46;;;;;;;22.87;16.80;;;15.80;99.90;;;;;;5010505;28;20233;-58
2022/10/13 12:54:21;;;;;;;21.97;16.10;;;15.80;99.90;;;;;;5010142;28;20591;-58
2022/10/13 12:56:51;;;;;;;22.43;15.33;;;15.80;99.90;;;;;;5011891;28;20246;-58
2022/10/13 12:59:25;;;;;;;20.13;16.87;;;15.90;99.90;;;;;;5007748;28;20314;-58
2022/10/13 13:01:58;;;;;;;22.37;16.37;;;15.90;99.90;;;;;;5004240;28;20253;-58
2022/10/13 13:04:43;;;;;;;21.50;17.00;;;15.90;99.90;;;;;;5005853;28;20649;-58
2022/10/13 13:07:30;;;;;;;21.93;17.53;;;15.90;99.90;;;;;;5010217;28;20225;-57